WIMM/MES METAR and TAF weather

Enter ICAO airport designator
Station Type Date Time Source
WIMM METAR 2019/08/20 00:00 UTC NOAA

WIMM 200000Z 19003KT 3500 HZ SCT017 25/23 Q1009 NOSIG


Station Type Date Time Source
WIMM Decoded METAR 2019/08/20 00:00 UTC NOAA

Station name not available
Aug 19, 2019 - 08:00 PM EDT / 2019.08.20 0000 UTC
Wind: from the S (190 degrees) at 3 MPH (3 KT):0
Visibility: 2 mile(s):0
Sky conditions: partly cloudy
Weather: haze
Temperature: 77 F (25 C)
Dew Point: 73 F (23 C)
Relative Humidity: 88%
Pressure (altimeter): 29.80 in. Hg (1009 hPa)
ob: WIMM 200000Z 19003KT 3500 HZ SCT017 25/23 Q1009 NOSIG
cycle: 0

Station Type Date Time Source
WIMM TAF 2019/08/24 18:07 UTC NOAA

TAF WIMM 241700Z 2418/2518 24005KT 3500 HZ SCT017
BECMG 2501/2503 VRB07KT 9000 NSW
BECMG 2511/2513 4000 HZ

Example: see airport list